Terminal Aerodrome Forecast
Issued by NWS

Home | Current Version | Previous Version | Text Only | Print | Product List | Glossary On
Versions: 1 2 3 4 5 6 7 8 9 10 11 12 13
000
FTUS45 KABQ 301700
TAFFMN
TAF
KFMN 301739Z 3018/3118 17005KT P6SM SCT200
     FM302000 27010G18KT P6SM SCT200
     FM310300 VRB06KT P6SM SKC
     FM311000 09007KT P6SM SKC=

USA.gov is the U.S. government's official web portal to all federal, state and local government web resources and services.